sensor_id;sensor_type;location;lat;lon;timestamp;temperature;humidity
14093;DHT22;7123;49.468;10.992;2024-01-11T00:00:34;-1.10;99.90
14093;DHT22;7123;49.468;10.992;2024-01-11T00:03:01;-1.10;99.90
14093;DHT22;7123;49.468;10.992;2024-01-11T00:05:28;-1.10;99.90
14093;DHT22;7123;49.468;10.992;2024-01-11T00:07:55;-1.10;99.90
14093;DHT22;7123;49.468;10.992;2024-01-11T00:10:22;-1.10;99.90
14093;DHT22;7123;49.468;10.992;2024-01-11T00:12:49;-1.10;99.90
14093;DHT22;7123;49.468;10.992;2024-01-11T00:15:16;-1.10;99.90
14093;DHT22;7123;49.468;10.992;2024-01-11T00:17:43;-1.00;99.90
14093;DHT22;7123;49.468;10.992;2024-01-11T00:20:10;-1.20;99.90
14093;DHT22;7123;49.468;10.992;2024-01-11T00:22:37;-1.20;99.90
14093;DHT22;7123;49.468;10.992;2024-01-11T00:25:07;-1.20;99.90
14093;DHT22;7123;49.468;10.992;2024-01-11T00:27:34;-1.20;99.90
14093;DHT22;7123;49.468;10.992;2024-01-11T00:30:01;-1.20;99.90
14093;DHT22;7123;49.468;10.992;2024-01-11T00:32:28;-1.20;99.90
14093;DHT22;7123;49.468;10.992;2024-01-11T00:34:55;-1.20;99.90
14093;DHT22;7123;49.468;10.992;2024-01-11T00:37:22;-1.20;99.90
14093;DHT22;7123;49.468;10.992;2024-01-11T00:39:48;-1.30;99.90
14093;DHT22;7123;49.468;10.992;2024-01-11T00:42:15;-1.30;99.90
14093;DHT22;7123;49.468;10.992;2024-01-11T00:44:42;-1.30;99.90
14093;DHT22;7123;49.468;10.992;2024-01-11T00:47:11;-1.30;99.90
14093;DHT22;7123;49.468;10.992;2024-01-11T00:49:37;-1.30;99.90
14093;DHT22;7123;49.468;10.992;2024-01-11T00:52:04;-1.30;99.90
14093;DHT22;7123;49.468;10.992;2024-01-11T00:54:31;-1.30;99.90
14093;DHT22;7123;49.468;10.992;2024-01-11T00:56:59;-1.30;99.90
14093;DHT22;7123;49.468;10.992;2024-01-11T00:59:26;-1.30;99.90
14093;DHT22;7123;49.468;10.992;2024-01-11T01:01:52;-1.30;99.90
14093;DHT22;7123;49.468;10.992;2024-01-11T01:04:19;-1.30;99.90
14093;DHT22;7123;49.468;10.992;2024-01-11T01:06:46;-1.30;99.90
14093;DHT22;7123;49.468;10.992;2024-01-11T01:09:13;-1.40;99.90
14093;DHT22;7123;49.468;10.992;2024-01-11T01:11:40;-1.40;99.90
14093;DHT22;7123;49.468;10.992;2024-01-11T01:14:07;-1.40;99.90
14093;DHT22;7123;49.468;10.992;2024-01-11T01:16:33;-1.40;99.90
14093;DHT22;7123;49.468;10.992;2024-01-11T01:19:00;-1.40;99.90
14093;DHT22;7123;49.468;10.992;2024-01-11T01:21:27;-1.40;99.90
14093;DHT22;7123;49.468;10.992;2024-01-11T01:23:54;-1.40;99.90
14093;DHT22;7123;49.468;10.992;2024-01-11T01:26:21;-1.40;99.90
14093;DHT22;7123;49.468;10.992;2024-01-11T01:28:48;-1.50;99.90
14093;DHT22;7123;49.468;10.992;2024-01-11T01:31:15;-1.50;99.90
14093;DHT22;7123;49.468;10.992;2024-01-11T01:33:41;-1.50;99.90
14093;DHT22;7123;49.468;10.992;2024-01-11T01:36:10;-1.50;99.90
14093;DHT22;7123;49.468;10.992;2024-01-11T01:38:37;-1.50;99.90
14093;DHT22;7123;49.468;10.992;2024-01-11T01:41:04;-1.50;99.90
14093;DHT22;7123;49.468;10.992;2024-01-11T01:43:30;-1.50;99.90
14093;DHT22;7123;49.468;10.992;2024-01-11T01:45:58;-1.50;99.90
14093;DHT22;7123;49.468;10.992;2024-01-11T01:48:25;-1.50;99.90
14093;DHT22;7123;49.468;10.992;2024-01-11T01:50:52;-1.50;99.90
14093;DHT22;7123;49.468;10.992;2024-01-11T01:53:20;-1.50;99.90
14093;DHT22;7123;49.468;10.992;2024-01-11T01:55:48;-1.50;99.90
14093;DHT22;7123;49.468;10.992;2024-01-11T01:58:17;-1.50;99.90
14093;DHT22;7123;49.468;10.992;2024-01-11T02:00:45;-1.50;99.90
14093;DHT22;7123;49.468;10.992;2024-01-11T02:03:12;-1.50;99.90
14093;DHT22;7123;49.468;10.992;2024-01-11T02:05:41;-1.50;99.90
14093;DHT22;7123;49.468;10.992;2024-01-11T02:08:08;-1.50;99.90
14093;DHT22;7123;49.468;10.992;2024-01-11T02:10:38;-1.50;99.90
14093;DHT22;7123;49.468;10.992;2024-01-11T02:13:05;-1.60;99.90
14093;DHT22;7123;49.468;10.992;2024-01-11T02:15:36;-1.60;99.90
14093;DHT22;7123;49.468;10.992;2024-01-11T02:18:03;-1.60;99.90
14093;DHT22;7123;49.468;10.992;2024-01-11T02:20:30;-1.60;99.90
14093;DHT22;7123;49.468;10.992;2024-01-11T02:23:03;-1.60;99.90
14093;DHT22;7123;49.468;10.992;2024-01-11T02:25:31;-1.60;99.90
14093;DHT22;7123;49.468;10.992;2024-01-11T02:27:58;-1.60;99.90
14093;DHT22;7123;49.468;10.992;2024-01-11T02:30:25;-1.60;99.90
14093;DHT22;7123;49.468;10.992;2024-01-11T02:32:52;-1.60;99.90
14093;DHT22;7123;49.468;10.992;2024-01-11T02:35:20;-1.60;99.90
14093;DHT22;7123;49.468;10.992;2024-01-11T02:37:48;-1.60;99.90
14093;DHT22;7123;49.468;10.992;2024-01-11T02:40:15;-1.60;99.90
14093;DHT22;7123;49.468;10.992;2024-01-11T02:42:42;-1.60;99.90
14093;DHT22;7123;49.468;10.992;2024-01-11T02:45:10;-1.60;99.90
14093;DHT22;7123;49.468;10.992;2024-01-11T02:47:39;-1.60;99.90
14093;DHT22;7123;49.468;10.992;2024-01-11T02:50:07;-1.60;99.90
14093;DHT22;7123;49.468;10.992;2024-01-11T02:52:34;-1.60;99.90
14093;DHT22;7123;49.468;10.992;2024-01-11T02:55:02;-1.60;99.90
14093;DHT22;7123;49.468;10.992;2024-01-11T02:57:28;-1.60;99.90
14093;DHT22;7123;49.468;10.992;2024-01-11T02:59:55;-1.70;99.90
14093;DHT22;7123;49.468;10.992;2024-01-11T03:02:22;-1.70;99.90
14093;DHT22;7123;49.468;10.992;2024-01-11T03:04:49;-1.70;99.90
14093;DHT22;7123;49.468;10.992;2024-01-11T03:07:15;-1.70;99.90
14093;DHT22;7123;49.468;10.992;2024-01-11T03:09:42;-1.70;99.90
14093;DHT22;7123;49.468;10.992;2024-01-11T03:12:09;-1.70;99.90
14093;DHT22;7123;49.468;10.992;2024-01-11T03:14:36;-1.70;99.90
14093;DHT22;7123;49.468;10.992;2024-01-11T03:17:03;-1.70;99.90
14093;DHT22;7123;49.468;10.992;2024-01-11T03:19:30;-1.70;99.90
14093;DHT22;7123;49.468;10.992;2024-01-11T03:21:56;-1.70;99.90
14093;DHT22;7123;49.468;10.992;2024-01-11T03:24:24;-1.70;99.90
14093;DHT22;7123;49.468;10.992;2024-01-11T03:26:50;-1.70;99.90
14093;DHT22;7123;49.468;10.992;2024-01-11T03:29:17;-1.80;99.90
14093;DHT22;7123;49.468;10.992;2024-01-11T03:31:44;-1.80;99.90
14093;DHT22;7123;49.468;10.992;2024-01-11T03:34:12;-1.80;99.90
14093;DHT22;7123;49.468;10.992;2024-01-11T03:36:39;-1.80;99.90
14093;DHT22;7123;49.468;10.992;2024-01-11T03:39:06;-1.80;99.90
14093;DHT22;7123;49.468;10.992;2024-01-11T03:41:33;-1.80;99.90
14093;DHT22;7123;49.468;10.992;2024-01-11T03:44:00;-1.80;99.90
14093;DHT22;7123;49.468;10.992;2024-01-11T03:46:27;-1.80;99.90
14093;DHT22;7123;49.468;10.992;2024-01-11T03:48:54;-1.80;99.90
14093;DHT22;7123;49.468;10.992;2024-01-11T03:51:22;-1.80;99.90
14093;DHT22;7123;49.468;10.992;2024-01-11T03:53:49;-1.80;99.90
14093;DHT22;7123;49.468;10.992;2024-01-11T03:56:16;-1.70;99.90
14093;DHT22;7123;49.468;10.992;2024-01-11T03:58:43;-1.80;99.90
14093;DHT22;7123;49.468;10.992;2024-01-11T04:01:11;-1.80;99.90
14093;DHT22;7123;49.468;10.992;2024-01-11T04:03:38;-1.70;99.90
14093;DHT22;7123;49.468;10.992;2024-01-11T04:06:05;-1.80;99.90
14093;DHT22;7123;49.468;10.992;2024-01-11T04:08:33;-1.80;99.90
14093;DHT22;7123;49.468;10.992;2024-01-11T04:11:03;-1.80;99.90
14093;DHT22;7123;49.468;10.992;2024-01-11T04:13:32;-1.80;99.90
14093;DHT22;7123;49.468;10.992;2024-01-11T04:16:04;-1.80;99.90
14093;DHT22;7123;49.468;10.992;2024-01-11T04:18:31;-1.80;99.90
14093;DHT22;7123;49.468;10.992;2024-01-11T04:20:58;-1.80;99.90
14093;DHT22;7123;49.468;10.992;2024-01-11T04:23:25;-1.80;99.90
14093;DHT22;7123;49.468;10.992;2024-01-11T04:25:52;-1.80;99.90
14093;DHT22;7123;49.468;10.992;2024-01-11T04:28:19;-1.80;99.90
14093;DHT22;7123;49.468;10.992;2024-01-11T04:30:45;-1.80;99.90
14093;DHT22;7123;49.468;10.992;2024-01-11T04:33:12;-1.90;99.90
14093;DHT22;7123;49.468;10.992;2024-01-11T04:35:39;-1.90;99.90
14093;DHT22;7123;49.468;10.992;2024-01-11T04:38:07;-2.00;99.90
14093;DHT22;7123;49.468;10.992;2024-01-11T04:40:34;-2.00;99.90
14093;DHT22;7123;49.468;10.992;2024-01-11T04:43:01;-2.00;99.90
14093;DHT22;7123;49.468;10.992;2024-01-11T04:45:28;-2.00;99.90
14093;DHT22;7123;49.468;10.992;2024-01-11T04:47:55;-2.00;99.90
14093;DHT22;7123;49.468;10.992;2024-01-11T04:50:22;-2.00;99.90
14093;DHT22;7123;49.468;10.992;2024-01-11T04:52:49;-2.10;99.90
14093;DHT22;7123;49.468;10.992;2024-01-11T04:55:15;-2.10;99.90
14093;DHT22;7123;49.468;10.992;2024-01-11T04:57:42;-2.10;99.90
14093;DHT22;7123;49.468;10.992;2024-01-11T05:00:09;-2.20;99.90
14093;DHT22;7123;49.468;10.992;2024-01-11T05:02:36;-2.20;99.90
14093;DHT22;7123;49.468;10.992;2024-01-11T05:05:03;-2.20;99.90
14093;DHT22;7123;49.468;10.992;2024-01-11T05:07:30;-2.30;99.90
14093;DHT22;7123;49.468;10.992;2024-01-11T05:09:57;-2.30;99.90
14093;DHT22;7123;49.468;10.992;2024-01-11T05:12:24;-2.30;99.90
14093;DHT22;7123;49.468;10.992;2024-01-11T05:14:51;-2.30;99.90
14093;DHT22;7123;49.468;10.992;2024-01-11T05:17:17;-2.30;99.90
14093;DHT22;7123;49.468;10.992;2024-01-11T05:19:44;-2.30;99.90
14093;DHT22;7123;49.468;10.992;2024-01-11T05:22:11;-2.30;99.90
14093;DHT22;7123;49.468;10.992;2024-01-11T05:24:38;-2.30;99.90
14093;DHT22;7123;49.468;10.992;2024-01-11T05:27:04;-2.30;99.90
14093;DHT22;7123;49.468;10.992;2024-01-11T05:29:31;-2.30;99.90
14093;DHT22;7123;49.468;10.992;2024-01-11T05:31:58;-2.30;99.90
14093;DHT22;7123;49.468;10.992;2024-01-11T05:34:25;-2.20;99.90
14093;DHT22;7123;49.468;10.992;2024-01-11T05:36:52;-2.20;99.90
14093;DHT22;7123;49.468;10.992;2024-01-11T05:39:19;-2.20;99.90
14093;DHT22;7123;49.468;10.992;2024-01-11T05:41:45;-2.20;99.90
14093;DHT22;7123;49.468;10.992;2024-01-11T05:44:12;-2.20;99.90
14093;DHT22;7123;49.468;10.992;2024-01-11T05:46:39;-2.20;99.90
14093;DHT22;7123;49.468;10.992;2024-01-11T05:49:06;-2.20;99.90
14093;DHT22;7123;49.468;10.992;2024-01-11T05:51:33;-2.20;99.90
14093;DHT22;7123;49.468;10.992;2024-01-11T05:53:59;-2.20;99.90
14093;DHT22;7123;49.468;10.992;2024-01-11T05:56:26;-2.10;99.90
14093;DHT22;7123;49.468;10.992;2024-01-11T05:58:53;-2.20;99.90
14093;DHT22;7123;49.468;10.992;2024-01-11T06:01:19;-2.10;99.90
14093;DHT22;7123;49.468;10.992;2024-01-11T06:03:48;-2.20;99.90
14093;DHT22;7123;49.468;10.992;2024-01-11T06:06:14;-2.20;99.90
14093;DHT22;7123;49.468;10.992;2024-01-11T06:08:41;-2.20;99.90
14093;DHT22;7123;49.468;10.992;2024-01-11T06:11:10;-2.20;99.90
14093;DHT22;7123;49.468;10.992;2024-01-11T06:13:36;-2.10;99.90
14093;DHT22;7123;49.468;10.992;2024-01-11T06:16:03;-2.10;99.90
14093;DHT22;7123;49.468;10.992;2024-01-11T06:18:30;-2.20;99.90
14093;DHT22;7123;49.468;10.992;2024-01-11T06:20:57;-2.20;99.90
14093;DHT22;7123;49.468;10.992;2024-01-11T06:23:25;-2.20;99.90
14093;DHT22;7123;49.468;10.992;2024-01-11T06:25:52;-1.80;99.90
14093;DHT22;7123;49.468;10.992;2024-01-11T06:28:19;-2.20;99.90
14093;DHT22;7123;49.468;10.992;2024-01-11T06:30:46;-2.10;99.90
14093;DHT22;7123;49.468;10.992;2024-01-11T06:33:12;-2.20;99.90
14093;DHT22;7123;49.468;10.992;2024-01-11T06:35:39;-2.20;99.90
14093;DHT22;7123;49.468;10.992;2024-01-11T06:38:06;-2.20;99.90
14093;DHT22;7123;49.468;10.992;2024-01-11T06:40:34;-2.20;99.90
14093;DHT22;7123;49.468;10.992;2024-01-11T06:43:01;-2.20;99.90
14093;DHT22;7123;49.468;10.992;2024-01-11T06:45:28;-2.20;99.90
14093;DHT22;7123;49.468;10.992;2024-01-11T06:47:54;-2.30;99.90
14093;DHT22;7123;49.468;10.992;2024-01-11T06:50:21;-2.30;99.90
14093;DHT22;7123;49.468;10.992;2024-01-11T06:52:48;-2.50;99.90
14093;DHT22;7123;49.468;10.992;2024-01-11T06:55:15;-2.50;99.90
14093;DHT22;7123;49.468;10.992;2024-01-11T06:57:42;-2.80;99.90
14093;DHT22;7123;49.468;10.992;2024-01-11T07:00:09;-2.90;99.90
14093;DHT22;7123;49.468;10.992;2024-01-11T07:02:36;-3.00;99.90
14093;DHT22;7123;49.468;10.992;2024-01-11T07:05:03;-3.10;99.90
14093;DHT22;7123;49.468;10.992;2024-01-11T07:07:30;-3.10;99.90
14093;DHT22;7123;49.468;10.992;2024-01-11T07:09:57;-3.00;99.90
14093;DHT22;7123;49.468;10.992;2024-01-11T07:12:24;-3.00;99.90
14093;DHT22;7123;49.468;10.992;2024-01-11T07:14:52;-2.90;99.90
14093;DHT22;7123;49.468;10.992;2024-01-11T07:17:18;-2.90;99.90
14093;DHT22;7123;49.468;10.992;2024-01-11T07:19:45;-2.90;99.90
14093;DHT22;7123;49.468;10.992;2024-01-11T07:22:12;-3.20;99.90
14093;DHT22;7123;49.468;10.992;2024-01-11T07:24:39;-3.40;99.90
14093;DHT22;7123;49.468;10.992;2024-01-11T07:27:06;-3.50;99.90
14093;DHT22;7123;49.468;10.992;2024-01-11T07:29:33;-3.50;99.90
14093;DHT22;7123;49.468;10.992;2024-01-11T07:32:01;-3.60;99.90
14093;DHT22;7123;49.468;10.992;2024-01-11T07:34:28;-3.50;99.90
14093;DHT22;7123;49.468;10.992;2024-01-11T07:36:55;-3.40;99.90
14093;DHT22;7123;49.468;10.992;2024-01-11T07:39:23;-3.30;99.90
14093;DHT22;7123;49.468;10.992;2024-01-11T07:41:50;-3.20;99.90
14093;DHT22;7123;49.468;10.992;2024-01-11T07:44:17;-3.10;99.90
14093;DHT22;7123;49.468;10.992;2024-01-11T07:46:44;-3.00;99.90
14093;DHT22;7123;49.468;10.992;2024-01-11T07:49:19;-3.00;99.90
14093;DHT22;7123;49.468;10.992;2024-01-11T07:51:47;-2.90;99.90
14093;DHT22;7123;49.468;10.992;2024-01-11T07:54:14;-2.90;99.90
14093;DHT22;7123;49.468;10.992;2024-01-11T07:56:40;-3.00;99.90
14093;DHT22;7123;49.468;10.992;2024-01-11T07:59:07;-3.00;99.90
14093;DHT22;7123;49.468;10.992;2024-01-11T08:01:34;-3.00;99.90
14093;DHT22;7123;49.468;10.992;2024-01-11T08:04:02;-3.00;99.90
14093;DHT22;7123;49.468;10.992;2024-01-11T08:06:29;-3.00;99.90
14093;DHT22;7123;49.468;10.992;2024-01-11T08:08:56;-3.10;99.90
14093;DHT22;7123;49.468;10.992;2024-01-11T08:11:23;-3.20;99.90
14093;DHT22;7123;49.468;10.992;2024-01-11T08:13:51;-3.30;99.90
14093;DHT22;7123;49.468;10.992;2024-01-11T08:16:21;-3.50;99.90
14093;DHT22;7123;49.468;10.992;2024-01-11T08:18:48;-3.70;99.90
14093;DHT22;7123;49.468;10.992;2024-01-11T08:21:15;-3.80;99.90
14093;DHT22;7123;49.468;10.992;2024-01-11T08:23:42;-3.80;99.90
14093;DHT22;7123;49.468;10.992;2024-01-11T08:26:12;-3.70;99.90
14093;DHT22;7123;49.468;10.992;2024-01-11T08:28:41;-3.60;99.90
14093;DHT22;7123;49.468;10.992;2024-01-11T08:31:08;-3.50;99.90
14093;DHT22;7123;49.468;10.992;2024-01-11T08:33:35;-3.40;99.90
14093;DHT22;7123;49.468;10.992;2024-01-11T08:36:05;-3.30;99.90
14093;DHT22;7123;49.468;10.992;2024-01-11T08:38:32;-3.20;99.90
14093;DHT22;7123;49.468;10.992;2024-01-11T08:40:59;-3.10;99.90
14093;DHT22;7123;49.468;10.992;2024-01-11T08:43:27;-3.00;99.90
14093;DHT22;7123;49.468;10.992;2024-01-11T08:45:54;-2.90;99.90
14093;DHT22;7123;49.468;10.992;2024-01-11T08:48:21;-2.80;99.90
14093;DHT22;7123;49.468;10.992;2024-01-11T08:50:48;-2.70;99.90
14093;DHT22;7123;49.468;10.992;2024-01-11T08:53:15;-2.70;99.90
14093;DHT22;7123;49.468;10.992;2024-01-11T08:55:42;-2.60;99.90
14093;DHT22;7123;49.468;10.992;2024-01-11T08:58:13;-2.60;99.90
14093;DHT22;7123;49.468;10.992;2024-01-11T09:00:39;-2.60;99.90
14093;DHT22;7123;49.468;10.992;2024-01-11T09:03:06;-2.60;99.90
14093;DHT22;7123;49.468;10.992;2024-01-11T09:05:33;-2.60;99.90
14093;DHT22;7123;49.468;10.992;2024-01-11T09:08:00;-2.60;99.90
14093;DHT22;7123;49.468;10.992;2024-01-11T09:10:27;-2.60;99.90
14093;DHT22;7123;49.468;10.992;2024-01-11T09:12:54;-2.60;99.90
14093;DHT22;7123;49.468;10.992;2024-01-11T09:15:21;-2.50;99.90
14093;DHT22;7123;49.468;10.992;2024-01-11T09:17:48;-2.50;99.90
14093;DHT22;7123;49.468;10.992;2024-01-11T09:20:16;-2.40;99.90
14093;DHT22;7123;49.468;10.992;2024-01-11T09:22:43;-2.30;99.90
14093;DHT22;7123;49.468;10.992;2024-01-11T09:25:10;-2.30;99.90
14093;DHT22;7123;49.468;10.992;2024-01-11T09:27:36;-2.30;99.90
14093;DHT22;7123;49.468;10.992;2024-01-11T09:30:04;-2.30;99.90
14093;DHT22;7123;49.468;10.992;2024-01-11T09:32:31;-2.20;99.90
14093;DHT22;7123;49.468;10.992;2024-01-11T09:34:58;-2.20;99.90
14093;DHT22;7123;49.468;10.992;2024-01-11T09:37:25;-2.10;99.90
14093;DHT22;7123;49.468;10.992;2024-01-11T09:39:52;-2.10;99.90
14093;DHT22;7123;49.468;10.992;2024-01-11T09:42:19;-2.10;99.90
14093;DHT22;7123;49.468;10.992;2024-01-11T09:44:46;-2.30;99.90
14093;DHT22;7123;49.468;10.992;2024-01-11T09:47:15;-2.30;99.90
14093;DHT22;7123;49.468;10.992;2024-01-11T09:49:48;-2.20;99.90
14093;DHT22;7123;49.468;10.992;2024-01-11T09:52:20;-2.40;99.90
14093;DHT22;7123;49.468;10.992;2024-01-11T09:54:46;-2.40;99.90
14093;DHT22;7123;49.468;10.992;2024-01-11T09:57:16;-2.40;99.90
14093;DHT22;7123;49.468;10.992;2024-01-11T09:59:50;-2.30;99.90
14093;DHT22;7123;49.468;10.992;2024-01-11T10:02:20;-2.30;99.90
14093;DHT22;7123;49.468;10.992;2024-01-11T10:04:47;-2.30;99.90
14093;DHT22;7123;49.468;10.992;2024-01-11T10:07:15;-2.20;99.90
14093;DHT22;7123;49.468;10.992;2024-01-11T10:09:45;-2.20;99.90
14093;DHT22;7123;49.468;10.992;2024-01-11T10:12:12;-2.10;99.90
14093;DHT22;7123;49.468;10.992;2024-01-11T10:14:39;-2.10;99.90
14093;DHT22;7123;49.468;10.992;2024-01-11T10:17:06;-2.00;99.90
14093;DHT22;7123;49.468;10.992;2024-01-11T10:19:33;-2.00;99.90
14093;DHT22;7123;49.468;10.992;2024-01-11T10:22:00;-1.90;99.90
14093;DHT22;7123;49.468;10.992;2024-01-11T10:24:27;-1.80;99.90
14093;DHT22;7123;49.468;10.992;2024-01-11T10:26:58;-1.80;99.90
14093;DHT22;7123;49.468;10.992;2024-01-11T10:29:33;-1.80;99.90
14093;DHT22;7123;49.468;10.992;2024-01-11T10:32:06;-1.80;99.90
14093;DHT22;7123;49.468;10.992;2024-01-11T10:34:33;-1.80;99.90
14093;DHT22;7123;49.468;10.992;2024-01-11T10:37:00;-1.80;99.90
14093;DHT22;7123;49.468;10.992;2024-01-11T10:39:27;-1.80;99.90
14093;DHT22;7123;49.468;10.992;2024-01-11T10:42:05;-1.80;99.90
14093;DHT22;7123;49.468;10.992;2024-01-11T10:44:34;-1.70;99.90
14093;DHT22;7123;49.468;10.992;2024-01-11T10:47:05;-1.70;99.90
14093;DHT22;7123;49.468;10.992;2024-01-11T10:49:39;-1.60;99.90
14093;DHT22;7123;49.468;10.992;2024-01-11T10:52:07;-1.60;99.90
14093;DHT22;7123;49.468;10.992;2024-01-11T10:54:34;-1.60;99.90
14093;DHT22;7123;49.468;10.992;2024-01-11T10:57:02;-1.50;99.90
14093;DHT22;7123;49.468;10.992;2024-01-11T10:59:32;-1.50;99.90
14093;DHT22;7123;49.468;10.992;2024-01-11T11:02:05;-1.40;99.90
14093;DHT22;7123;49.468;10.992;2024-01-11T11:04:33;-1.40;99.90
14093;DHT22;7123;49.468;10.992;2024-01-11T11:07:02;-1.30;99.90
14093;DHT22;7123;49.468;10.992;2024-01-11T11:09:30;-1.30;99.90
14093;DHT22;7123;49.468;10.992;2024-01-11T11:11:59;-1.30;99.90
14093;DHT22;7123;49.468;10.992;2024-01-11T11:14:28;-1.20;99.90
14093;DHT22;7123;49.468;10.992;2024-01-11T11:16:55;-1.20;99.90
14093;DHT22;7123;49.468;10.992;2024-01-11T11:19:21;-1.10;99.90
14093;DHT22;7123;49.468;10.992;2024-01-11T11:21:48;-1.10;99.90
14093;DHT22;7123;49.468;10.992;2024-01-11T11:24:17;-1.10;99.90
14093;DHT22;7123;49.468;10.992;2024-01-11T11:26:44;-1.10;99.90
14093;DHT22;7123;49.468;10.992;2024-01-11T11:29:11;-1.00;99.90
14093;DHT22;7123;49.468;10.992;2024-01-11T11:31:42;-1.00;99.90
14093;DHT22;7123;49.468;10.992;2024-01-11T11:34:13;-0.90;99.90
14093;DHT22;7123;49.468;10.992;2024-01-11T11:36:41;-0.90;99.90
14093;DHT22;7123;49.468;10.992;2024-01-11T11:39:11;-0.70;99.90
14093;DHT22;7123;49.468;10.992;2024-01-11T11:41:41;-0.80;99.90
14093;DHT22;7123;49.468;10.992;2024-01-11T11:44:12;-0.80;99.90
14093;DHT22;7123;49.468;10.992;2024-01-11T11:46:40;-0.80;99.90
14093;DHT22;7123;49.468;10.992;2024-01-11T11:49:07;-0.70;99.90
14093;DHT22;7123;49.468;10.992;2024-01-11T11:51:39;-0.60;99.90
14093;DHT22;7123;49.468;10.992;2024-01-11T11:54:08;-0.70;99.90
14093;DHT22;7123;49.468;10.992;2024-01-11T11:56:41;-0.70;99.90
14093;DHT22;7123;49.468;10.992;2024-01-11T11:59:08;-0.70;99.90
14093;DHT22;7123;49.468;10.992;2024-01-11T12:01:35;-0.70;99.90
14093;DHT22;7123;49.468;10.992;2024-01-11T12:04:03;-0.60;99.90
14093;DHT22;7123;49.468;10.992;2024-01-11T12:06:30;-0.60;99.90
14093;DHT22;7123;49.468;10.992;2024-01-11T12:08:57;-0.60;99.90
14093;DHT22;7123;49.468;10.992;2024-01-11T12:11:25;-0.60;99.90
14093;DHT22;7123;49.468;10.992;2024-01-11T12:13:52;-0.60;99.90
14093;DHT22;7123;49.468;10.992;2024-01-11T12:16:20;-0.60;99.90
14093;DHT22;7123;49.468;10.992;2024-01-11T12:18:49;-0.60;99.90
14093;DHT22;7123;49.468;10.992;2024-01-11T12:21:16;-0.50;99.90
14093;DHT22;7123;49.468;10.992;2024-01-11T12:23:44;-0.40;99.90
14093;DHT22;7123;49.468;10.992;2024-01-11T12:26:11;-0.40;99.90
14093;DHT22;7123;49.468;10.992;2024-01-11T12:28:41;-0.40;99.90
14093;DHT22;7123;49.468;10.992;2024-01-11T12:31:09;-0.40;99.90
14093;DHT22;7123;49.468;10.992;2024-01-11T12:33:36;-0.40;99.90
14093;DHT22;7123;49.468;10.992;2024-01-11T12:36:06;-0.40;99.90
14093;DHT22;7123;49.468;10.992;2024-01-11T12:38:34;-0.40;99.90
14093;DHT22;7123;49.468;10.992;2024-01-11T12:41:01;-0.40;99.90
14093;DHT22;7123;49.468;10.992;2024-01-11T12:43:29;-0.30;99.90
14093;DHT22;7123;49.468;10.992;2024-01-11T12:45:56;-0.30;99.90
14093;DHT22;7123;49.468;10.992;2024-01-11T12:48:23;-0.20;99.90
14093;DHT22;7123;49.468;10.992;2024-01-11T12:50:51;-0.20;99.90
14093;DHT22;7123;49.468;10.992;2024-01-11T12:53:39;-0.10;99.90
14093;DHT22;7123;49.468;10.992;2024-01-11T12:56:07;-0.10;99.90
14093;DHT22;7123;49.468;10.992;2024-01-11T12:58:40;-0.10;99.90
14093;DHT22;7123;49.468;10.992;2024-01-11T13:01:07;-0.10;99.90
14093;DHT22;7123;49.468;10.992;2024-01-11T13:03:39;-0.10;99.90
14093;DHT22;7123;49.468;10.992;2024-01-11T13:06:06;0.00;99.90
14093;DHT22;7123;49.468;10.992;2024-01-11T13:08:35;-0.10;99.90
14093;DHT22;7123;49.468;10.992;2024-01-11T13:11:09;0.00;99.90
14093;DHT22;7123;49.468;10.992;2024-01-11T13:13:36;0.00;99.90
14093;DHT22;7123;49.468;10.992;2024-01-11T13:16:03;0.00;99.90
14093;DHT22;7123;49.468;10.992;2024-01-11T13:18:40;0.10;99.90
14093;DHT22;7123;49.468;10.992;2024-01-11T13:21:07;0.20;99.90
14093;DHT22;7123;49.468;10.992;2024-01-11T13:23:34;0.20;99.90
14093;DHT22;7123;49.468;10.992;2024-01-11T13:26:01;0.30;99.90
14093;DHT22;7123;49.468;10.992;2024-01-11T13:28:29;0.30;99.90
14093;DHT22;7123;49.468;10.992;2024-01-11T13:30:55;0.30;99.90
14093;DHT22;7123;49.468;10.992;2024-01-11T13:33:23;0.40;99.90
14093;DHT22;7123;49.468;10.992;2024-01-11T13:35:50;0.40;99.90
14093;DHT22;7123;49.468;10.992;2024-01-11T13:38:18;0.40;99.90
14093;DHT22;7123;49.468;10.992;2024-01-11T13:40:48;0.40;99.90
14093;DHT22;7123;49.468;10.992;2024-01-11T13:43:16;0.40;99.90
14093;DHT22;7123;49.468;10.992;2024-01-11T13:45:43;0.40;99.90
14093;DHT22;7123;49.468;10.992;2024-01-11T13:48:11;0.40;99.90
14093;DHT22;7123;49.468;10.992;2024-01-11T13:50:38;0.40;99.90
14093;DHT22;7123;49.468;10.992;2024-01-11T13:53:05;0.50;99.90
14093;DHT22;7123;49.468;10.992;2024-01-11T13:55:32;0.60;99.90
14093;DHT22;7123;49.468;10.992;2024-01-11T13:58:07;0.80;99.90
14093;DHT22;7123;49.468;10.992;2024-01-11T14:00:34;1.10;99.90
14093;DHT22;7123;49.468;10.992;2024-01-11T14:03:01;1.20;99.90
14093;DHT22;7123;49.468;10.992;2024-01-11T14:05:30;1.30;99.90
14093;DHT22;7123;49.468;10.992;2024-01-11T14:07:57;1.40;99.90
14093;DHT22;7123;49.468;10.992;2024-01-11T14:10:26;1.50;99.90
14093;DHT22;7123;49.468;10.992;2024-01-11T14:12:54;1.60;99.90
14093;DHT22;7123;49.468;10.992;2024-01-11T14:15:21;1.70;99.90
14093;DHT22;7123;49.468;10.992;2024-01-11T14:17:48;1.80;99.90
14093;DHT22;7123;49.468;10.992;2024-01-11T14:20:16;1.90;99.90
14093;DHT22;7123;49.468;10.992;2024-01-11T14:22:45;1.70;99.90
14093;DHT22;7123;49.468;10.992;2024-01-11T14:25:19;1.70;99.90
14093;DHT22;7123;49.468;10.992;2024-01-11T14:27:49;1.50;99.90
14093;DHT22;7123;49.468;10.992;2024-01-11T14:30:16;1.30;99.90
14093;DHT22;7123;49.468;10.992;2024-01-11T14:32:44;1.20;99.90
14093;DHT22;7123;49.468;10.992;2024-01-11T14:35:12;1.20;99.90
14093;DHT22;7123;49.468;10.992;2024-01-11T14:37:39;1.20;99.90
14093;DHT22;7123;49.468;10.992;2024-01-11T14:40:07;1.20;99.90
14093;DHT22;7123;49.468;10.992;2024-01-11T14:42:37;1.20;99.90
14093;DHT22;7123;49.468;10.992;2024-01-11T14:45:05;1.30;99.90
14093;DHT22;7123;49.468;10.992;2024-01-11T14:47:32;1.30;99.90
14093;DHT22;7123;49.468;10.992;2024-01-11T14:50:00;1.40;99.90
14093;DHT22;7123;49.468;10.992;2024-01-11T14:52:26;1.50;99.90
14093;DHT22;7123;49.468;10.992;2024-01-11T14:54:53;1.60;99.90
14093;DHT22;7123;49.468;10.992;2024-01-11T14:57:20;1.70;99.90
14093;DHT22;7123;49.468;10.992;2024-01-11T14:59:47;1.70;99.90
14093;DHT22;7123;49.468;10.992;2024-01-11T15:02:14;1.70;99.90
14093;DHT22;7123;49.468;10.992;2024-01-11T15:04:41;1.80;99.90
14093;DHT22;7123;49.468;10.992;2024-01-11T15:07:09;1.70;99.90
14093;DHT22;7123;49.468;10.992;2024-01-11T15:09:37;1.50;99.90
14093;DHT22;7123;49.468;10.992;2024-01-11T15:12:07;1.50;99.90
14093;DHT22;7123;49.468;10.992;2024-01-11T15:14:34;1.50;99.90
14093;DHT22;7123;49.468;10.992;2024-01-11T15:17:01;1.60;99.90
14093;DHT22;7123;49.468;10.992;2024-01-11T15:19:29;1.60;99.90
14093;DHT22;7123;49.468;10.992;2024-01-11T15:21:56;1.70;99.90
14093;DHT22;7123;49.468;10.992;2024-01-11T15:24:22;1.70;99.90
14093;DHT22;7123;49.468;10.992;2024-01-11T15:26:49;1.80;99.90
14093;DHT22;7123;49.468;10.992;2024-01-11T15:29:16;1.80;99.90
14093;DHT22;7123;49.468;10.992;2024-01-11T15:31:44;1.80;99.90
14093;DHT22;7123;49.468;10.992;2024-01-11T15:34:13;1.70;99.90